aviador You're here:

EPRZ Decoded Metar

RZESZOW in POLAND
Report Time2017-08-23 04:00:00
UTC Time2017-08-23 04:19:09
Flight Rules mvfr MVFR
Wind260° at 09 kt
W.Decomp.*RWY 27: 8.7 kt HW 2.3 kt LCW
W.Rank260° ranks 4
Current wind is above 260° avg. (8.3)
Visibility9999 m
Phenomena:N/A
Clouds:Broken 022 Hf
Expected CloudBase > 400 ft AGL from Temp-Dew spread
Ceiling2,200 ft
Temp10°C (ISA -4)
Dew Point09°C (94% RH)
AAT6.6°C
QNH1016 hPa
Density Alt279 ft
Elevation663 ft
Report Wrong Elevation
Raw Report
EPRZ 230400Z 26009KT 9999 BKN022 10/09 Q1016=

Extra information for EPRZ:More info

Metar Taf Metar & Taf Last 4 Metars F.Rules Stats Wind Profile Meteogram Temp Stats Airport Information Weather charts Add Link Nearby VenuesMetar ALERT Operation Metar Decoded Social comments